PWSweather.com
Personal Weather Stations
Station Observations
WD4JKH
Forsyth, GA 31029

Forsyth, GA 31029

Lat: 33.033225, Lon: -83.927995

Elevation: 709

Station Type: Davis Vantage VUE

High Low Average
Temperature 54.0°F12.2°C 30.6°F-0.8°C 41.2°F5.1°C
Dew Point 29.2°F-1.6°C 22.7°F-5.2°C 25.9°F-3.4°C
Winds 6.6 mph 10.6 kmh Calm Calm 2.0 mph SE3.2 kmh SE
Wind Gusts 11.0 mph17.7 kmh 2.0 mph3.2 kmh 6.0 mph9.7 kmh
Humidity 75% 34% 56%
Pressure 30.38 in1028.8 mb 30.23 in1023.7 mb -
Precipitation 0.00 in0.0 mm - -
Hour Temp Dew Point Humidity Winds Wind Gusts Pressure Precip Precip Rate Daily Precip Total
12:00 AM 36.7°F2.6°C 24.2°F-4.3°C 60% 1.8 mph WNW2.9 kmh WNW 5.0 mph8.0 kmh 30.23 in1023.7 mb 0.00 in0.0 mm 0.00 in0.0 mm 0.00 in0.0 mm
12:05 AM 36.6°F2.6°C 24.1°F-4.4°C 60% 1.2 mph WNW1.9 kmh WNW 5.0 mph8.0 kmh 30.23 in1023.7 mb 0.00 in0.0 mm 0.00 in0.0 mm 0.00 in0.0 mm
12:10 AM 36.4°F2.4°C 23.9°F-4.5°C 60% 1.0 mph WNW1.6 kmh WNW 3.0 mph4.8 kmh 30.23 in1023.7 mb 0.00 in0.0 mm 0.00 in0.0 mm 0.00 in0.0 mm
12:15 AM 36.3°F2.4°C 23.7°F-4.6°C 60% 1.0 mph NW1.6 kmh NW 3.0 mph4.8 kmh 30.22 in1023.4 mb 0.00 in0.0 mm 0.00 in0.0 mm 0.00 in0.0 mm
12:20 AM 36.1°F2.3°C 23.6°F-4.7°C 60% 1.0 mph NW1.6 kmh NW 2.0 mph3.2 kmh 30.23 in1023.7 mb 0.00 in0.0 mm 0.00 in0.0 mm 0.00 in0.0 mm
12:25 AM 36.0°F2.2°C 23.9°F-4.5°C 61% 1.0 mph WNW1.6 kmh WNW 2.0 mph3.2 kmh 30.23 in1023.7 mb 0.00 in0.0 mm 0.00 in0.0 mm 0.00 in0.0 mm
12:30 AM 36.0°F2.2°C 23.9°F-4.5°C 61% 1.0 mph NW1.6 kmh NW 2.0 mph3.2 kmh 30.23 in1023.7 mb 0.00 in0.0 mm 0.00 in0.0 mm 0.00 in0.0 mm
12:35 AM 36.0°F2.2°C 23.9°F-4.5°C 61% 1.0 mph NW1.6 kmh NW 2.0 mph3.2 kmh 30.23 in1023.7 mb 0.00 in0.0 mm 0.00 in0.0 mm 0.00 in0.0 mm
12:40 AM 35.9°F2.2°C 23.7°F-4.6°C 61% 1.1 mph NW1.8 kmh NW 2.0 mph3.2 kmh 30.23 in1023.7 mb 0.00 in0.0 mm 0.00 in0.0 mm 0.00 in0.0 mm
12:46 AM 35.8°F2.1°C 24.1°F-4.4°C 62% Calm Calm 2.0 mph3.2 kmh 30.23 in1023.7 mb 0.00 in0.0 mm 0.00 in0.0 mm 0.00 in0.0 mm
12:50 AM 35.5°F1.9°C 23.8°F-4.6°C 62% 1.0 mph NW1.6 kmh NW 2.0 mph3.2 kmh 30.23 in1023.7 mb 0.00 in0.0 mm 0.00 in0.0 mm 0.00 in0.0 mm
12:55 AM 35.6°F2.0°C 23.9°F-4.5°C 62% 1.2 mph NW1.9 kmh NW 2.0 mph3.2 kmh 30.23 in1023.7 mb 0.00 in0.0 mm 0.00 in0.0 mm 0.00 in0.0 mm
01:01 AM 35.7°F2.1°C 24.0°F-4.4°C 62% 1.4 mph NW2.3 kmh NW 4.0 mph6.4 kmh 30.23 in1023.7 mb 0.00 in0.0 mm 0.00 in0.0 mm 0.00 in0.0 mm
01:06 AM 35.5°F1.9°C 23.8°F-4.6°C 62% 1.0 mph NW1.6 kmh NW 4.0 mph6.4 kmh 30.23 in1023.7 mb 0.00 in0.0 mm 0.00 in0.0 mm 0.00 in0.0 mm
01:11 AM 35.5°F1.9°C 23.8°F-4.6°C 62% 1.5 mph NW2.4 kmh NW 4.0 mph6.4 kmh 30.23 in1023.7 mb 0.00 in0.0 mm 0.00 in0.0 mm 0.00 in0.0 mm
01:16 AM 35.5°F1.9°C 23.8°F-4.6°C 62% 1.4 mph NW2.3 kmh NW 4.0 mph6.4 kmh 30.23 in1023.7 mb 0.00 in0.0 mm 0.00 in0.0 mm 0.00 in0.0 mm
01:21 AM 35.4°F1.9°C 23.7°F-4.6°C 62% 1.4 mph NW2.3 kmh NW 3.0 mph4.8 kmh 30.23 in1023.7 mb 0.00 in0.0 mm 0.00 in0.0 mm 0.00 in0.0 mm
01:26 AM 35.3°F1.8°C 23.6°F-4.7°C 62% 1.7 mph NW2.7 kmh NW 3.0 mph4.8 kmh 30.23 in1023.7 mb 0.00 in0.0 mm 0.00 in0.0 mm 0.00 in0.0 mm
01:31 AM 35.2°F1.8°C 23.5°F-4.7°C 62% 1.1 mph NW1.8 kmh NW 4.0 mph6.4 kmh 30.23 in1023.7 mb 0.00 in0.0 mm 0.00 in0.0 mm 0.00 in0.0 mm
01:36 AM 35.1°F1.7°C 23.8°F-4.6°C 63% 1.7 mph NW2.7 kmh NW 4.0 mph6.4 kmh 30.23 in1023.7 mb 0.00 in0.0 mm 0.00 in0.0 mm 0.00 in0.0 mm
01:41 AM 35.1°F1.7°C 23.8°F-4.6°C 63% 2.0 mph NW3.2 kmh NW 4.0 mph6.4 kmh 30.23 in1023.7 mb 0.00 in0.0 mm 0.00 in0.0 mm 0.00 in0.0 mm
01:46 AM 35.0°F1.7°C 24.1°F-4.4°C 64% 1.3 mph NNW2.1 kmh NNW 3.0 mph4.8 kmh 30.23 in1023.7 mb 0.00 in0.0 mm 0.00 in0.0 mm 0.00 in0.0 mm
01:51 AM 34.9°F1.6°C 23.6°F-4.7°C 63% 1.2 mph NNW1.9 kmh NNW 3.0 mph4.8 kmh 30.23 in1023.7 mb 0.00 in0.0 mm 0.00 in0.0 mm 0.00 in0.0 mm
01:56 AM 34.7°F1.5°C 23.4°F-4.8°C 63% 1.1 mph NNW1.8 kmh NNW 3.0 mph4.8 kmh 30.23 in1023.7 mb 0.00 in0.0 mm 0.00 in0.0 mm 0.00 in0.0 mm
02:01 AM 34.7°F1.5°C 23.8°F-4.6°C 64% 1.1 mph NNW1.8 kmh NNW 3.0 mph4.8 kmh 30.23 in1023.7 mb 0.00 in0.0 mm 0.00 in0.0 mm 0.00 in0.0 mm
02:05 AM 34.6°F1.4°C 23.7°F-4.6°C 64% 1.6 mph NW2.6 kmh NW 3.0 mph4.8 kmh 30.23 in1023.7 mb 0.00 in0.0 mm 0.00 in0.0 mm 0.00 in0.0 mm
02:10 AM 34.5°F1.4°C 23.6°F-4.7°C 64% 1.4 mph NW2.3 kmh NW 3.0 mph4.8 kmh 30.23 in1023.7 mb 0.00 in0.0 mm 0.00 in0.0 mm 0.00 in0.0 mm
02:15 AM 34.5°F1.4°C 23.6°F-4.7°C 64% 1.3 mph NW2.1 kmh NW 3.0 mph4.8 kmh 30.23 in1023.7 mb 0.00 in0.0 mm 0.00 in0.0 mm 0.00 in0.0 mm
02:20 AM 34.4°F1.3°C 23.5°F-4.7°C 64% 1.0 mph NW1.6 kmh NW 3.0 mph4.8 kmh 30.23 in1023.7 mb 0.00 in0.0 mm 0.00 in0.0 mm 0.00 in0.0 mm
02:25 AM 34.4°F1.3°C 23.5°F-4.7°C 64% 1.2 mph NNW1.9 kmh NNW 3.0 mph4.8 kmh 30.23 in1023.7 mb 0.00 in0.0 mm 0.00 in0.0 mm 0.00 in0.0 mm
02:30 AM 34.4°F1.3°C 23.5°F-4.7°C 64% 1.2 mph NW1.9 kmh NW 3.0 mph4.8 kmh 30.23 in1023.7 mb 0.00 in0.0 mm 0.00 in0.0 mm 0.00 in0.0 mm
02:35 AM 34.3°F1.3°C 23.5°F-4.7°C 64% 1.3 mph NNW2.1 kmh NNW 3.0 mph4.8 kmh 30.23 in1023.7 mb 0.00 in0.0 mm 0.00 in0.0 mm 0.00 in0.0 mm
02:40 AM 34.2°F1.2°C 23.3°F-4.8°C 64% 1.5 mph NNW2.4 kmh NNW 3.0 mph4.8 kmh 30.24 in1024.0 mb 0.00 in0.0 mm 0.00 in0.0 mm 0.00 in0.0 mm
02:45 AM 34.2°F1.2°C 23.4°F-4.8°C 64% 1.6 mph NW2.6 kmh NW 4.0 mph6.4 kmh 30.24 in1024.0 mb 0.00 in0.0 mm 0.00 in0.0 mm 0.00 in0.0 mm
02:50 AM 34.1°F1.2°C 23.3°F-4.8°C 64% 1.7 mph NW2.7 kmh NW 4.0 mph6.4 kmh 30.24 in1024.0 mb 0.00 in0.0 mm 0.00 in0.0 mm 0.00 in0.0 mm
02:55 AM 34.1°F1.2°C 23.3°F-4.8°C 64% 1.8 mph NNW2.9 kmh NNW 4.0 mph6.4 kmh 30.24 in1024.0 mb 0.00 in0.0 mm 0.00 in0.0 mm 0.00 in0.0 mm
03:00 AM 34.0°F1.1°C 23.1°F-4.9°C 64% 1.4 mph NNW2.3 kmh NNW 4.0 mph6.4 kmh 30.24 in1024.0 mb 0.00 in0.0 mm 0.00 in0.0 mm 0.00 in0.0 mm
03:05 AM 34.0°F1.1°C 23.2°F-4.9°C 64% 1.3 mph NW2.1 kmh NW 4.0 mph6.4 kmh 30.25 in1024.4 mb 0.00 in0.0 mm 0.00 in0.0 mm 0.00 in0.0 mm
03:10 AM 33.9°F1.1°C 23.0°F-5.0°C 64% 1.5 mph NW2.4 kmh NW 4.0 mph6.4 kmh 30.25 in1024.4 mb 0.00 in0.0 mm 0.00 in0.0 mm 0.00 in0.0 mm
03:15 AM 33.7°F0.9°C 23.2°F-4.9°C 65% 1.5 mph NW2.4 kmh NW 4.0 mph6.4 kmh 30.25 in1024.4 mb 0.00 in0.0 mm 0.00 in0.0 mm 0.00 in0.0 mm
03:20 AM 33.7°F0.9°C 23.3°F-4.8°C 65% 1.8 mph NW2.9 kmh NW 4.0 mph6.4 kmh 30.26 in1024.7 mb 0.00 in0.0 mm 0.00 in0.0 mm 0.00 in0.0 mm
03:25 AM 33.7°F0.9°C 23.3°F-4.8°C 65% 1.6 mph NNW2.6 kmh NNW 4.0 mph6.4 kmh 30.26 in1024.7 mb 0.00 in0.0 mm 0.00 in0.0 mm 0.00 in0.0 mm
03:30 AM 33.7°F0.9°C 23.3°F-4.8°C 65% 1.6 mph N2.6 kmh N 4.0 mph6.4 kmh 30.26 in1024.7 mb 0.00 in0.0 mm 0.00 in0.0 mm 0.00 in0.0 mm
03:35 AM 33.6°F0.9°C 23.1°F-4.9°C 65% 1.6 mph NNW2.6 kmh NNW 5.0 mph8.0 kmh 30.26 in1024.7 mb 0.00 in0.0 mm 0.00 in0.0 mm 0.00 in0.0 mm
03:40 AM 33.6°F0.9°C 23.2°F-4.9°C 65% 2.2 mph NW3.5 kmh NW 5.0 mph8.0 kmh 30.27 in1025.1 mb 0.00 in0.0 mm 0.00 in0.0 mm 0.00 in0.0 mm
03:45 AM 33.6°F0.9°C 23.2°F-4.9°C 65% 1.6 mph NNW2.6 kmh NNW 5.0 mph8.0 kmh 30.27 in1025.1 mb 0.00 in0.0 mm 0.00 in0.0 mm 0.00 in0.0 mm
03:50 AM 33.5°F0.8°C 23.1°F-4.9°C 65% 1.8 mph NNW2.9 kmh NNW 5.0 mph8.0 kmh 30.27 in1025.1 mb 0.00 in0.0 mm 0.00 in0.0 mm 0.00 in0.0 mm
03:55 AM 33.4°F0.8°C 23.0°F-5.0°C 65% 1.3 mph N2.1 kmh N 5.0 mph8.0 kmh 30.27 in1025.1 mb 0.00 in0.0 mm 0.00 in0.0 mm 0.00 in0.0 mm
04:00 AM 33.3°F0.7°C 22.8°F-5.1°C 65% 1.6 mph N2.6 kmh N 5.0 mph8.0 kmh 30.27 in1025.1 mb 0.00 in0.0 mm 0.00 in0.0 mm 0.00 in0.0 mm
04:05 AM 33.2°F0.7°C 22.8°F-5.1°C 65% 1.3 mph N2.1 kmh N 5.0 mph8.0 kmh 30.27 in1025.1 mb 0.00 in0.0 mm 0.00 in0.0 mm 0.00 in0.0 mm
04:10 AM 33.2°F0.7°C 23.1°F-4.9°C 66% 2.2 mph N3.5 kmh N 4.0 mph6.4 kmh 30.27 in1025.1 mb 0.00 in0.0 mm 0.00 in0.0 mm 0.00 in0.0 mm
04:15 AM 33.1°F0.6°C 23.0°F-5.0°C 66% 1.8 mph N2.9 kmh N 4.0 mph6.4 kmh 30.27 in1025.1 mb 0.00 in0.0 mm 0.00 in0.0 mm 0.00 in0.0 mm
04:20 AM 32.9°F0.5°C 22.8°F-5.1°C 66% 1.4 mph N2.3 kmh N 4.0 mph6.4 kmh 30.27 in1025.1 mb 0.00 in0.0 mm 0.00 in0.0 mm 0.00 in0.0 mm
04:25 AM 32.8°F0.4°C 22.8°F-5.1°C 66% 1.8 mph N2.9 kmh N 4.0 mph6.4 kmh 30.27 in1025.1 mb 0.00 in0.0 mm 0.00 in0.0 mm 0.00 in0.0 mm
04:30 AM 32.8°F0.4°C 22.8°F-5.1°C 66% 2.1 mph N3.4 kmh N 4.0 mph6.4 kmh 30.27 in1025.1 mb 0.00 in0.0 mm 0.00 in0.0 mm 0.00 in0.0 mm
04:35 AM 32.8°F0.4°C 22.7°F-5.2°C 66% 1.7 mph N2.7 kmh N 5.0 mph8.0 kmh 30.27 in1025.1 mb 0.00 in0.0 mm 0.00 in0.0 mm 0.00 in0.0 mm
04:40 AM 32.8°F0.4°C 22.8°F-5.1°C 66% 1.4 mph N2.3 kmh N 5.0 mph8.0 kmh 30.27 in1025.1 mb 0.00 in0.0 mm 0.00 in0.0 mm 0.00 in0.0 mm
04:45 AM 32.7°F0.4°C 23.0°F-5.0°C 67% 1.6 mph 2.6 kmh 5.0 mph8.0 kmh 30.27 in1025.1 mb 0.00 in0.0 mm 0.00 in0.0 mm 0.00 in0.0 mm
04:50 AM 32.6°F0.3°C 22.8°F-5.1°C 67% 1.3 mph N2.1 kmh N 5.0 mph8.0 kmh 30.27 in1025.1 mb 0.00 in0.0 mm 0.00 in0.0 mm 0.00 in0.0 mm
04:55 AM 32.5°F0.3°C 22.8°F-5.1°C 67% 1.2 mph N1.9 kmh N 3.0 mph4.8 kmh 30.27 in1025.1 mb 0.00 in0.0 mm 0.00 in0.0 mm 0.00 in0.0 mm
05:00 AM 32.4°F0.2°C 22.7°F-5.2°C 67% 1.3 mph N2.1 kmh N 3.0 mph4.8 kmh 30.27 in1025.1 mb 0.00 in0.0 mm 0.00 in0.0 mm 0.00 in0.0 mm
05:05 AM 32.3°F0.2°C 23.0°F-5.0°C 68% 1.1 mph N1.8 kmh N 4.0 mph6.4 kmh 30.27 in1025.1 mb 0.00 in0.0 mm 0.00 in0.0 mm 0.00 in0.0 mm
05:10 AM 32.1°F0.1°C 22.8°F-5.1°C 68% 1.4 mph N2.3 kmh N 4.0 mph6.4 kmh 30.27 in1025.1 mb 0.00 in0.0 mm 0.00 in0.0 mm 0.00 in0.0 mm
05:15 AM 32.0°F0.0°C 22.7°F-5.2°C 68% 1.2 mph N1.9 kmh N 4.0 mph6.4 kmh 30.27 in1025.1 mb 0.00 in0.0 mm 0.00 in0.0 mm 0.00 in0.0 mm
05:20 AM 31.8°F-0.1°C 22.9°F-5.1°C 69% 1.3 mph NNW2.1 kmh NNW 3.0 mph4.8 kmh 30.27 in1025.1 mb 0.00 in0.0 mm 0.00 in0.0 mm 0.00 in0.0 mm
05:25 AM 31.7°F-0.2°C 22.8°F-5.1°C 69% 1.2 mph NW1.9 kmh NW 3.0 mph4.8 kmh 30.27 in1025.1 mb 0.00 in0.0 mm 0.00 in0.0 mm 0.00 in0.0 mm
05:30 AM 31.6°F-0.2°C 22.9°F-5.1°C 70% 1.4 mph NNW2.3 kmh NNW 3.0 mph4.8 kmh 30.27 in1025.1 mb 0.00 in0.0 mm 0.00 in0.0 mm 0.00 in0.0 mm
05:35 AM 31.5°F-0.3°C 22.9°F-5.1°C 70% 1.0 mph N1.6 kmh N 3.0 mph4.8 kmh 30.27 in1025.1 mb 0.00 in0.0 mm 0.00 in0.0 mm 0.00 in0.0 mm
05:40 AM 31.4°F-0.3°C 22.8°F-5.1°C 70% 1.0 mph NW1.6 kmh NW 3.0 mph4.8 kmh 30.27 in1025.1 mb 0.00 in0.0 mm 0.00 in0.0 mm 0.00 in0.0 mm
05:45 AM 31.3°F-0.4°C 22.7°F-5.2°C 70% 1.1 mph NNW1.8 kmh NNW 3.0 mph4.8 kmh 30.27 in1025.1 mb 0.00 in0.0 mm 0.00 in0.0 mm 0.00 in0.0 mm
05:50 AM 31.2°F-0.4°C 22.9°F-5.1°C 71% 1.2 mph NNW1.9 kmh NNW 3.0 mph4.8 kmh 30.27 in1025.1 mb 0.00 in0.0 mm 0.00 in0.0 mm 0.00 in0.0 mm
05:55 AM 31.2°F-0.4°C 22.9°F-5.1°C 71% 1.3 mph N2.1 kmh N 3.0 mph4.8 kmh 30.27 in1025.1 mb 0.00 in0.0 mm 0.00 in0.0 mm 0.00 in0.0 mm
06:00 AM 31.1°F-0.5°C 22.8°F-5.1°C 71% 1.8 mph N2.9 kmh N 4.0 mph6.4 kmh 30.28 in1025.4 mb 0.00 in0.0 mm 0.00 in0.0 mm 0.00 in0.0 mm
06:05 AM 31.1°F-0.5°C 22.9°F-5.1°C 71% 1.0 mph N1.6 kmh N 4.0 mph6.4 kmh 30.28 in1025.4 mb 0.00 in0.0 mm 0.00 in0.0 mm 0.00 in0.0 mm
06:10 AM 31.0°F-0.6°C 22.8°F-5.1°C 71% 1.5 mph N2.4 kmh N 4.0 mph6.4 kmh 30.28 in1025.4 mb 0.00 in0.0 mm 0.00 in0.0 mm 0.00 in0.0 mm
06:15 AM 31.0°F-0.6°C 22.7°F-5.2°C 71% 1.1 mph N1.8 kmh N 4.0 mph6.4 kmh 30.28 in1025.4 mb 0.00 in0.0 mm 0.00 in0.0 mm 0.00 in0.0 mm
06:20 AM 31.0°F-0.6°C 22.8°F-5.1°C 71% 1.1 mph N1.8 kmh N 4.0 mph6.4 kmh 30.28 in1025.4 mb 0.00 in0.0 mm 0.00 in0.0 mm 0.00 in0.0 mm
06:25 AM 31.1°F-0.5°C 22.9°F-5.1°C 71% 1.2 mph NNE1.9 kmh NNE 4.0 mph6.4 kmh 30.29 in1025.7 mb 0.00 in0.0 mm 0.00 in0.0 mm 0.00 in0.0 mm
06:30 AM 30.9°F-0.6°C 23.0°F-5.0°C 72% 1.2 mph N1.9 kmh N 4.0 mph6.4 kmh 30.29 in1025.7 mb 0.00 in0.0 mm 0.00 in0.0 mm 0.00 in0.0 mm
06:35 AM 30.9°F-0.6°C 23.0°F-5.0°C 72% Calm Calm 4.0 mph6.4 kmh 30.29 in1025.7 mb 0.00 in0.0 mm 0.00 in0.0 mm 0.00 in0.0 mm
06:40 AM 30.8°F-0.7°C 22.9°F-5.1°C 72% 1.0 mph NNW1.6 kmh NNW 4.0 mph6.4 kmh 30.29 in1025.7 mb 0.00 in0.0 mm 0.00 in0.0 mm 0.00 in0.0 mm
06:45 AM 30.8°F-0.7°C 22.9°F-5.1°C 72% 1.0 mph 1.6 kmh 2.0 mph3.2 kmh 30.29 in1025.7 mb 0.00 in0.0 mm 0.00 in0.0 mm 0.00 in0.0 mm
06:50 AM 30.7°F-0.7°C 22.8°F-5.1°C 72% 1.4 mph NNW2.3 kmh NNW 2.0 mph3.2 kmh 30.29 in1025.7 mb 0.00 in0.0 mm 0.00 in0.0 mm 0.00 in0.0 mm
06:55 AM 30.7°F-0.7°C 22.8°F-5.1°C 72% 1.1 mph N1.8 kmh N 2.0 mph3.2 kmh 30.29 in1025.7 mb 0.00 in0.0 mm 0.00 in0.0 mm 0.00 in0.0 mm
07:00 AM 30.7°F-0.7°C 22.8°F-5.1°C 72% 1.1 mph N1.8 kmh N 2.0 mph3.2 kmh 30.29 in1025.7 mb 0.00 in0.0 mm 0.00 in0.0 mm 0.00 in0.0 mm
07:04 AM 30.7°F-0.7°C 22.8°F-5.1°C 72% 1.5 mph N2.4 kmh N 4.0 mph6.4 kmh 30.29 in1025.7 mb 0.00 in0.0 mm 0.00 in0.0 mm 0.00 in0.0 mm
07:09 AM 30.8°F-0.7°C 22.9°F-5.1°C 72% 1.7 mph NNE2.7 kmh NNE 4.0 mph6.4 kmh 30.30 in1026.1 mb 0.00 in0.0 mm 0.00 in0.0 mm 0.00 in0.0 mm
07:14 AM 30.9°F-0.6°C 23.0°F-5.0°C 72% 1.5 mph NNE2.4 kmh NNE 4.0 mph6.4 kmh 30.30 in1026.1 mb 0.00 in0.0 mm 0.00 in0.0 mm 0.00 in0.0 mm
07:19 AM 30.9°F-0.6°C 23.0°F-5.0°C 72% 1.6 mph NE2.6 kmh NE 4.0 mph6.4 kmh 30.30 in1026.1 mb 0.00 in0.0 mm 0.00 in0.0 mm 0.00 in0.0 mm
07:24 AM 30.9°F-0.6°C 23.0°F-5.0°C 72% 1.4 mph NNE2.3 kmh NNE 4.0 mph6.4 kmh 30.30 in1026.1 mb 0.00 in0.0 mm 0.00 in0.0 mm 0.00 in0.0 mm
07:29 AM 30.9°F-0.6°C 23.0°F-5.0°C 72% 1.7 mph NE2.7 kmh NE 4.0 mph6.4 kmh 30.30 in1026.1 mb 0.00 in0.0 mm 0.00 in0.0 mm 0.00 in0.0 mm
07:34 AM 30.9°F-0.6°C 23.3°F-4.8°C 73% 1.7 mph NE2.7 kmh NE 4.0 mph6.4 kmh 30.30 in1026.1 mb 0.00 in0.0 mm 0.00 in0.0 mm 0.00 in0.0 mm
07:39 AM 30.9°F-0.6°C 23.3°F-4.8°C 73% 2.0 mph NNE3.2 kmh NNE 4.0 mph6.4 kmh 30.30 in1026.1 mb 0.00 in0.0 mm 0.00 in0.0 mm 0.00 in0.0 mm
07:44 AM 30.8°F-0.7°C 23.2°F-4.9°C 73% 1.5 mph NE2.4 kmh NE 3.0 mph4.8 kmh 30.30 in1026.1 mb 0.00 in0.0 mm 0.00 in0.0 mm 0.00 in0.0 mm
07:49 AM 30.8°F-0.7°C 23.2°F-4.9°C 73% 1.2 mph NNE1.9 kmh NNE 3.0 mph4.8 kmh 30.30 in1026.1 mb 0.00 in0.0 mm 0.00 in0.0 mm 0.00 in0.0 mm
07:54 AM 30.7°F-0.7°C 23.1°F-4.9°C 73% 1.3 mph NE2.1 kmh NE 3.0 mph4.8 kmh 30.31 in1026.4 mb 0.00 in0.0 mm 0.00 in0.0 mm 0.00 in0.0 mm
07:59 AM 30.6°F-0.8°C 23.0°F-5.0°C 73% 1.9 mph NE3.1 kmh NE 4.0 mph6.4 kmh 30.31 in1026.4 mb 0.00 in0.0 mm 0.00 in0.0 mm 0.00 in0.0 mm
08:04 AM 30.6°F-0.8°C 23.3°F-4.8°C 74% 1.5 mph NE2.4 kmh NE 4.0 mph6.4 kmh 30.31 in1026.4 mb 0.00 in0.0 mm 0.00 in0.0 mm 0.00 in0.0 mm
08:09 AM 30.6°F-0.8°C 23.3°F-4.8°C 74% 3.1 mph NE5.0 kmh NE 5.0 mph8.0 kmh 30.31 in1026.4 mb 0.00 in0.0 mm 0.00 in0.0 mm 0.00 in0.0 mm
08:14 AM 30.6°F-0.8°C 23.3°F-4.8°C 74% 2.5 mph NE4.0 kmh NE 5.0 mph8.0 kmh 30.31 in1026.4 mb 0.00 in0.0 mm 0.00 in0.0 mm 0.00 in0.0 mm
08:19 AM 30.7°F-0.7°C 23.4°F-4.8°C 74% 2.5 mph NE4.0 kmh NE 5.0 mph8.0 kmh 30.31 in1026.4 mb 0.00 in0.0 mm 0.00 in0.0 mm 0.00 in0.0 mm
08:24 AM 30.7°F-0.7°C 23.4°F-4.8°C 74% 2.8 mph NE4.5 kmh NE 5.0 mph8.0 kmh 30.31 in1026.4 mb 0.00 in0.0 mm 0.00 in0.0 mm 0.00 in0.0 mm
08:29 AM 30.7°F-0.7°C 23.4°F-4.8°C 74% 2.2 mph NE3.5 kmh NE 5.0 mph8.0 kmh 30.31 in1026.4 mb 0.00 in0.0 mm 0.00 in0.0 mm 0.00 in0.0 mm
08:34 AM 30.7°F-0.7°C 23.4°F-4.8°C 74% 2.6 mph NE4.2 kmh NE 4.0 mph6.4 kmh 30.31 in1026.4 mb 0.00 in0.0 mm 0.00 in0.0 mm 0.00 in0.0 mm
08:39 AM 30.6°F-0.8°C 23.7°F-4.6°C 75% 1.9 mph NE3.1 kmh NE 4.0 mph6.4 kmh 30.31 in1026.4 mb 0.00 in0.0 mm 0.00 in0.0 mm 0.00 in0.0 mm
08:44 AM 30.7°F-0.7°C 23.8°F-4.6°C 75% 2.5 mph ENE4.0 kmh ENE 4.0 mph6.4 kmh 30.31 in1026.4 mb 0.00 in0.0 mm 0.00 in0.0 mm 0.00 in0.0 mm
08:49 AM 30.8°F-0.7°C 23.8°F-4.6°C 75% 2.0 mph NE3.2 kmh NE 4.0 mph6.4 kmh 30.31 in1026.4 mb 0.00 in0.0 mm 0.00 in0.0 mm 0.00 in0.0 mm
08:54 AM 30.9°F-0.6°C 23.6°F-4.7°C 74% 1.8 mph NE2.9 kmh NE 4.0 mph6.4 kmh 30.31 in1026.4 mb 0.00 in0.0 mm 0.00 in0.0 mm 0.00 in0.0 mm
08:59 AM 31.1°F-0.5°C 23.8°F-4.6°C 74% 1.8 mph NE2.9 kmh NE 4.0 mph6.4 kmh 30.31 in1026.4 mb 0.00 in0.0 mm 0.00 in0.0 mm 0.00 in0.0 mm
09:04 AM 31.3°F-0.4°C 24.0°F-4.4°C 74% 2.4 mph ENE3.9 kmh ENE 4.0 mph6.4 kmh 30.31 in1026.4 mb 0.00 in0.0 mm 0.00 in0.0 mm 0.00 in0.0 mm
09:09 AM 31.4°F-0.3°C 24.1°F-4.4°C 74% 2.1 mph NE3.4 kmh NE 5.0 mph8.0 kmh 30.32 in1026.8 mb 0.00 in0.0 mm 0.00 in0.0 mm 0.00 in0.0 mm
09:14 AM 31.6°F-0.2°C 24.0°F-4.4°C 73% 1.8 mph NE2.9 kmh NE 5.0 mph8.0 kmh 30.32 in1026.8 mb 0.00 in0.0 mm 0.00 in0.0 mm 0.00 in0.0 mm
09:19 AM 31.8°F-0.1°C 24.2°F-4.3°C 73% 2.1 mph NE3.4 kmh NE 5.0 mph8.0 kmh 30.32 in1026.8 mb 0.00 in0.0 mm 0.00 in0.0 mm 0.00 in0.0 mm
09:24 AM 31.8°F-0.1°C 24.2°F-4.3°C 73% 1.5 mph NE2.4 kmh NE 5.0 mph8.0 kmh 30.32 in1026.8 mb 0.00 in0.0 mm 0.00 in0.0 mm 0.00 in0.0 mm
09:29 AM 32.1°F0.1°C 24.5°F-4.2°C 73% 2.8 mph ENE4.5 kmh ENE 5.0 mph8.0 kmh 30.32 in1026.8 mb 0.00 in0.0 mm 0.00 in0.0 mm 0.00 in0.0 mm
09:34 AM 32.5°F0.3°C 24.9°F-3.9°C 73% 2.9 mph ENE4.7 kmh ENE 6.0 mph9.7 kmh 30.32 in1026.8 mb 0.00 in0.0 mm 0.00 in0.0 mm 0.00 in0.0 mm
09:39 AM 32.8°F0.4°C 25.1°F-3.8°C 73% 3.3 mph ENE5.3 kmh ENE 7.0 mph11.3 kmh 30.32 in1026.8 mb 0.00 in0.0 mm 0.00 in0.0 mm 0.00 in0.0 mm
09:44 AM 33.1°F0.6°C 25.4°F-3.7°C 73% 2.5 mph ENE4.0 kmh ENE 7.0 mph11.3 kmh 30.33 in1027.1 mb 0.00 in0.0 mm 0.00 in0.0 mm 0.00 in0.0 mm
09:49 AM 33.4°F0.8°C 25.4°F-3.7°C 72% 2.5 mph E4.0 kmh E 7.0 mph11.3 kmh 30.33 in1027.1 mb 0.00 in0.0 mm 0.00 in0.0 mm 0.00 in0.0 mm
09:54 AM 33.8°F1.0°C 25.5°F-3.6°C 71% 2.6 mph ENE4.2 kmh ENE 7.0 mph11.3 kmh 30.33 in1027.1 mb 0.00 in0.0 mm 0.00 in0.0 mm 0.00 in0.0 mm
09:59 AM 34.1°F1.2°C 25.4°F-3.7°C 70% 2.8 mph ENE4.5 kmh ENE 6.0 mph9.7 kmh 30.33 in1027.1 mb 0.00 in0.0 mm 0.00 in0.0 mm 0.00 in0.0 mm
10:04 AM 34.4°F1.3°C 25.7°F-3.5°C 70% 3.0 mph ENE4.8 kmh ENE 6.0 mph9.7 kmh 30.34 in1027.4 mb 0.00 in0.0 mm 0.00 in0.0 mm 0.00 in0.0 mm
10:09 AM 34.5°F1.4°C 25.4°F-3.7°C 69% 4.3 mph E6.9 kmh E 9.0 mph14.5 kmh 30.34 in1027.4 mb 0.00 in0.0 mm 0.00 in0.0 mm 0.00 in0.0 mm
10:14 AM 34.8°F1.6°C 26.1°F-3.3°C 70% 2.4 mph ENE3.9 kmh ENE 9.0 mph14.5 kmh 30.34 in1027.4 mb 0.00 in0.0 mm 0.00 in0.0 mm 0.00 in0.0 mm
10:19 AM 35.1°F1.7°C 26.0°F-3.3°C 69% 5.1 mph E8.2 kmh E 9.0 mph14.5 kmh 30.34 in1027.4 mb 0.00 in0.0 mm 0.00 in0.0 mm 0.00 in0.0 mm
10:24 AM 35.2°F1.8°C 26.0°F-3.3°C 69% 4.5 mph ENE7.2 kmh ENE 9.0 mph14.5 kmh 30.34 in1027.4 mb 0.00 in0.0 mm 0.00 in0.0 mm 0.00 in0.0 mm
10:29 AM 35.3°F1.8°C 26.1°F-3.3°C 69% 3.1 mph ENE5.0 kmh ENE 8.0 mph12.9 kmh 30.35 in1027.8 mb 0.00 in0.0 mm 0.00 in0.0 mm 0.00 in0.0 mm
10:34 AM 35.6°F2.0°C 26.2°F-3.2°C 68% 3.6 mph E5.8 kmh E 9.0 mph14.5 kmh 30.35 in1027.8 mb 0.00 in0.0 mm 0.00 in0.0 mm 0.00 in0.0 mm
10:39 AM 35.9°F2.2°C 26.8°F-2.9°C 69% 2.8 mph ENE4.5 kmh ENE 9.0 mph14.5 kmh 30.35 in1027.8 mb 0.00 in0.0 mm 0.00 in0.0 mm 0.00 in0.0 mm
10:44 AM 36.1°F2.3°C 26.6°F-3.0°C 68% 3.9 mph ENE6.3 kmh ENE 9.0 mph14.5 kmh 30.35 in1027.8 mb 0.00 in0.0 mm 0.00 in0.0 mm 0.00 in0.0 mm
10:49 AM 36.3°F2.4°C 26.8°F-2.9°C 68% 3.2 mph ENE5.1 kmh ENE 9.0 mph14.5 kmh 30.36 in1028.1 mb 0.00 in0.0 mm 0.00 in0.0 mm 0.00 in0.0 mm
10:54 AM 36.7°F2.6°C 26.8°F-2.9°C 67% 4.3 mph E6.9 kmh E 8.0 mph12.9 kmh 30.36 in1028.1 mb 0.00 in0.0 mm 0.00 in0.0 mm 0.00 in0.0 mm
10:59 AM 37.0°F2.8°C 27.1°F-2.7°C 67% 3.1 mph ENE5.0 kmh ENE 7.0 mph11.3 kmh 30.36 in1028.1 mb 0.00 in0.0 mm 0.00 in0.0 mm 0.00 in0.0 mm
11:04 AM 37.5°F3.1°C 27.2°F-2.7°C 66% 2.8 mph ENE4.5 kmh ENE 7.0 mph11.3 kmh 30.37 in1028.4 mb 0.00 in0.0 mm 0.00 in0.0 mm 0.00 in0.0 mm
11:09 AM 37.9°F3.3°C 27.3°F-2.6°C 65% 2.8 mph E4.5 kmh E 7.0 mph11.3 kmh 30.37 in1028.4 mb 0.00 in0.0 mm 0.00 in0.0 mm 0.00 in0.0 mm
11:14 AM 38.3°F3.5°C 27.2°F-2.7°C 64% 2.4 mph E3.9 kmh E 6.0 mph9.7 kmh 30.37 in1028.4 mb 0.00 in0.0 mm 0.00 in0.0 mm 0.00 in0.0 mm
11:19 AM 38.7°F3.7°C 27.6°F-2.4°C 64% 3.1 mph E5.0 kmh E 6.0 mph9.7 kmh 30.37 in1028.4 mb 0.00 in0.0 mm 0.00 in0.0 mm 0.00 in0.0 mm
11:24 AM 38.9°F3.8°C 27.8°F-2.3°C 64% 3.1 mph E5.0 kmh E 6.0 mph9.7 kmh 30.37 in1028.4 mb 0.00 in0.0 mm 0.00 in0.0 mm 0.00 in0.0 mm
11:29 AM 39.3°F4.1°C 28.2°F-2.1°C 64% 3.0 mph E4.8 kmh E 6.0 mph9.7 kmh 30.37 in1028.4 mb 0.00 in0.0 mm 0.00 in0.0 mm 0.00 in0.0 mm
11:34 AM 39.9°F4.4°C 28.4°F-2.0°C 63% 2.9 mph E4.7 kmh E 6.0 mph9.7 kmh 30.37 in1028.4 mb 0.00 in0.0 mm 0.00 in0.0 mm 0.00 in0.0 mm
11:39 AM 40.3°F4.6°C 28.3°F-2.1°C 62% 3.4 mph E5.5 kmh E 6.0 mph9.7 kmh 30.37 in1028.4 mb 0.00 in0.0 mm 0.00 in0.0 mm 0.00 in0.0 mm
11:44 AM 40.5°F4.7°C 28.6°F-1.9°C 62% 3.0 mph NE4.8 kmh NE 6.0 mph9.7 kmh 30.37 in1028.4 mb 0.00 in0.0 mm 0.00 in0.0 mm 0.00 in0.0 mm
11:49 AM 40.7°F4.8°C 28.8°F-1.8°C 62% 1.0 mph NE1.6 kmh NE 6.0 mph9.7 kmh 30.38 in1028.8 mb 0.00 in0.0 mm 0.00 in0.0 mm 0.00 in0.0 mm
11:54 AM 41.3°F5.2°C 28.9°F-1.7°C 61% 2.0 mph NE3.2 kmh NE 6.0 mph9.7 kmh 30.37 in1028.4 mb 0.00 in0.0 mm 0.00 in0.0 mm 0.00 in0.0 mm
11:59 AM 41.9°F5.5°C 29.0°F-1.7°C 60% 2.0 mph E3.2 kmh E 5.0 mph8.0 kmh 30.37 in1028.4 mb 0.00 in0.0 mm 0.00 in0.0 mm 0.00 in0.0 mm
12:04 PM 42.3°F5.7°C 27.7°F-2.4°C 56% 1.8 mph E2.9 kmh E 6.0 mph9.7 kmh 30.37 in1028.4 mb 0.00 in0.0 mm 0.00 in0.0 mm 0.00 in0.0 mm
12:09 PM 42.3°F5.7°C 27.7°F-2.4°C 56% 2.9 mph ESE4.7 kmh ESE 8.0 mph12.9 kmh 30.37 in1028.4 mb 0.00 in0.0 mm 0.00 in0.0 mm 0.00 in0.0 mm
12:14 PM 42.7°F5.9°C 27.2°F-2.7°C 54% 3.8 mph SE6.1 kmh SE 8.0 mph12.9 kmh 30.37 in1028.4 mb 0.00 in0.0 mm 0.00 in0.0 mm 0.00 in0.0 mm
12:19 PM 43.4°F6.3°C 28.3°F-2.1°C 55% 2.7 mph E4.3 kmh E 8.0 mph12.9 kmh 30.36 in1028.1 mb 0.00 in0.0 mm 0.00 in0.0 mm 0.00 in0.0 mm
12:24 PM 43.7°F6.5°C 28.1°F-2.2°C 54% 1.7 mph SE2.7 kmh SE 8.0 mph12.9 kmh 30.37 in1028.4 mb 0.00 in0.0 mm 0.00 in0.0 mm 0.00 in0.0 mm
12:29 PM 43.9°F6.6°C 27.9°F-2.3°C 53% 2.7 mph SE4.3 kmh SE 7.0 mph11.3 kmh 30.36 in1028.1 mb 0.00 in0.0 mm 0.00 in0.0 mm 0.00 in0.0 mm
12:34 PM 43.7°F6.5°C 27.7°F-2.4°C 53% 1.8 mph E2.9 kmh E 7.0 mph11.3 kmh 30.36 in1028.1 mb 0.00 in0.0 mm 0.00 in0.0 mm 0.00 in0.0 mm
12:39 PM 44.3°F6.8°C 27.8°F-2.3°C 52% 2.4 mph SSE3.9 kmh SSE 6.0 mph9.7 kmh 30.36 in1028.1 mb 0.00 in0.0 mm 0.00 in0.0 mm 0.00 in0.0 mm
12:44 PM 45.0°F7.2°C 28.9°F-1.7°C 53% 1.8 mph ESE2.9 kmh ESE 6.0 mph9.7 kmh 30.35 in1027.8 mb 0.00 in0.0 mm 0.00 in0.0 mm 0.00 in0.0 mm
12:49 PM 45.2°F7.3°C 28.6°F-1.9°C 52% 2.3 mph S3.7 kmh S 5.0 mph8.0 kmh 30.35 in1027.8 mb 0.00 in0.0 mm 0.00 in0.0 mm 0.00 in0.0 mm
12:54 PM 45.7°F7.6°C 28.6°F-1.9°C 51% 2.8 mph E4.5 kmh E 5.0 mph8.0 kmh 30.35 in1027.8 mb 0.00 in0.0 mm 0.00 in0.0 mm 0.00 in0.0 mm
12:59 PM 45.8°F7.7°C 27.7°F-2.4°C 49% 2.9 mph E4.7 kmh E 5.0 mph8.0 kmh 30.35 in1027.8 mb 0.00 in0.0 mm 0.00 in0.0 mm 0.00 in0.0 mm
01:03 PM 45.7°F7.6°C 28.1°F-2.2°C 50% 4.2 mph E6.8 kmh E 9.0 mph14.5 kmh 30.34 in1027.4 mb 0.00 in0.0 mm 0.00 in0.0 mm 0.00 in0.0 mm
01:08 PM 46.0°F7.8°C 28.4°F-2.0°C 50% 3.0 mph E4.8 kmh E 9.0 mph14.5 kmh 30.34 in1027.4 mb 0.00 in0.0 mm 0.00 in0.0 mm 0.00 in0.0 mm
01:13 PM 46.1°F7.8°C 28.4°F-2.0°C 50% 3.2 mph NE5.1 kmh NE 9.0 mph14.5 kmh 30.34 in1027.4 mb 0.00 in0.0 mm 0.00 in0.0 mm 0.00 in0.0 mm
01:18 PM 46.6°F8.1°C 28.9°F-1.7°C 50% 2.7 mph E4.3 kmh E 9.0 mph14.5 kmh 30.34 in1027.4 mb 0.00 in0.0 mm 0.00 in0.0 mm 0.00 in0.0 mm
01:23 PM 47.0°F8.3°C 28.3°F-2.1°C 48% 4.3 mph E6.9 kmh E 9.0 mph14.5 kmh 30.33 in1027.1 mb 0.00 in0.0 mm 0.00 in0.0 mm 0.00 in0.0 mm
01:28 PM 47.2°F8.4°C 27.9°F-2.3°C 47% 2.1 mph E3.4 kmh E 9.0 mph14.5 kmh 30.33 in1027.1 mb 0.00 in0.0 mm 0.00 in0.0 mm 0.00 in0.0 mm
01:33 PM 47.5°F8.6°C 28.3°F-2.1°C 47% 3.2 mph SE5.1 kmh SE 9.0 mph14.5 kmh 30.33 in1027.1 mb 0.00 in0.0 mm 0.00 in0.0 mm 0.00 in0.0 mm
01:38 PM 48.2°F9.0°C 28.8°F-1.8°C 47% 1.9 mph SE3.1 kmh SE 9.0 mph14.5 kmh 30.33 in1027.1 mb 0.00 in0.0 mm 0.00 in0.0 mm 0.00 in0.0 mm
01:43 PM 48.0°F8.9°C 28.7°F-1.8°C 47% Calm Calm 7.0 mph11.3 kmh 30.32 in1026.8 mb 0.00 in0.0 mm 0.00 in0.0 mm 0.00 in0.0 mm
01:48 PM 48.6°F9.2°C 29.2°F-1.6°C 47% 1.4 mph ENE2.3 kmh ENE 7.0 mph11.3 kmh 30.32 in1026.8 mb 0.00 in0.0 mm 0.00 in0.0 mm 0.00 in0.0 mm
01:53 PM 49.1°F9.5°C 28.6°F-1.9°C 45% 1.0 mph NE1.6 kmh NE 6.0 mph9.7 kmh 30.32 in1026.8 mb 0.00 in0.0 mm 0.00 in0.0 mm 0.00 in0.0 mm
01:58 PM 49.4°F9.7°C 28.3°F-2.1°C 44% 2.9 mph SSE4.7 kmh SSE 8.0 mph12.9 kmh 30.32 in1026.8 mb 0.00 in0.0 mm 0.00 in0.0 mm 0.00 in0.0 mm
02:03 PM 49.5°F9.7°C 28.4°F-2.0°C 44% 3.4 mph E5.5 kmh E 8.0 mph12.9 kmh 30.31 in1026.4 mb 0.00 in0.0 mm 0.00 in0.0 mm 0.00 in0.0 mm
02:08 PM 49.4°F9.7°C 27.8°F-2.3°C 43% 1.9 mph ENE3.1 kmh ENE 8.0 mph12.9 kmh 30.31 in1026.4 mb 0.00 in0.0 mm 0.00 in0.0 mm 0.00 in0.0 mm
02:13 PM 49.1°F9.5°C 27.5°F-2.5°C 43% 2.2 mph E3.5 kmh E 8.0 mph12.9 kmh 30.30 in1026.1 mb 0.00 in0.0 mm 0.00 in0.0 mm 0.00 in0.0 mm
02:18 PM 49.4°F9.7°C 27.7°F-2.4°C 43% 5.6 mph ESE9.0 kmh ESE 11.0 mph17.7 kmh 30.30 in1026.1 mb 0.00 in0.0 mm 0.00 in0.0 mm 0.00 in0.0 mm
02:23 PM 49.5°F9.7°C 27.8°F-2.3°C 43% 2.9 mph E4.7 kmh E 11.0 mph17.7 kmh 30.30 in1026.1 mb 0.00 in0.0 mm 0.00 in0.0 mm 0.00 in0.0 mm
02:28 PM 50.0°F10.0°C 28.2°F-2.1°C 43% 1.0 mph ESE1.6 kmh ESE 11.0 mph17.7 kmh 30.30 in1026.1 mb 0.00 in0.0 mm 0.00 in0.0 mm 0.00 in0.0 mm
02:33 PM 50.7°F10.4°C 27.1°F-2.7°C 40% 5.0 mph SE8.0 kmh SE 11.0 mph17.7 kmh 30.30 in1026.1 mb 0.00 in0.0 mm 0.00 in0.0 mm 0.00 in0.0 mm
02:38 PM 50.8°F10.4°C 26.5°F-3.1°C 39% 3.8 mph SE6.1 kmh SE 8.0 mph12.9 kmh 30.30 in1026.1 mb 0.00 in0.0 mm 0.00 in0.0 mm 0.00 in0.0 mm
02:43 PM 50.5°F10.3°C 26.9°F-2.8°C 40% 3.2 mph E5.1 kmh E 8.0 mph12.9 kmh 30.30 in1026.1 mb 0.00 in0.0 mm 0.00 in0.0 mm 0.00 in0.0 mm
02:48 PM 50.5°F10.3°C 26.9°F-2.8°C 40% 5.1 mph E8.2 kmh E 8.0 mph12.9 kmh 30.30 in1026.1 mb 0.00 in0.0 mm 0.00 in0.0 mm 0.00 in0.0 mm
02:53 PM 50.5°F10.3°C 25.6°F-3.6°C 38% 6.5 mph E10.5 kmh E 9.0 mph14.5 kmh 30.29 in1025.7 mb 0.00 in0.0 mm 0.00 in0.0 mm 0.00 in0.0 mm
02:58 PM 50.8°F10.4°C 25.9°F-3.4°C 38% 4.1 mph SSE6.6 kmh SSE 9.0 mph14.5 kmh 30.30 in1026.1 mb 0.00 in0.0 mm 0.00 in0.0 mm 0.00 in0.0 mm
03:03 PM 51.4°F10.8°C 27.1°F-2.7°C 39% 1.7 mph SSE2.7 kmh SSE 9.0 mph14.5 kmh 30.29 in1025.7 mb 0.00 in0.0 mm 0.00 in0.0 mm 0.00 in0.0 mm
03:08 PM 52.0°F11.1°C 28.2°F-2.1°C 40% 1.2 mph ESE1.9 kmh ESE 9.0 mph14.5 kmh 30.29 in1025.7 mb 0.00 in0.0 mm 0.00 in0.0 mm 0.00 in0.0 mm
03:13 PM 52.1°F11.2°C 26.4°F-3.1°C 37% 3.3 mph ESE5.3 kmh ESE 8.0 mph12.9 kmh 30.28 in1025.4 mb 0.00 in0.0 mm 0.00 in0.0 mm 0.00 in0.0 mm
03:18 PM 52.0°F11.1°C 26.3°F-3.2°C 37% 3.9 mph SE6.3 kmh SE 7.0 mph11.3 kmh 30.28 in1025.4 mb 0.00 in0.0 mm 0.00 in0.0 mm 0.00 in0.0 mm
03:23 PM 51.7°F10.9°C 26.7°F-2.9°C 38% 1.5 mph SE2.4 kmh SE 8.0 mph12.9 kmh 30.28 in1025.4 mb 0.00 in0.0 mm 0.00 in0.0 mm 0.00 in0.0 mm
03:28 PM 52.0°F11.1°C 26.3°F-3.2°C 37% 3.3 mph S5.3 kmh S 8.0 mph12.9 kmh 30.28 in1025.4 mb 0.00 in0.0 mm 0.00 in0.0 mm 0.00 in0.0 mm
03:33 PM 52.4°F11.3°C 25.5°F-3.6°C 35% 4.8 mph SE7.7 kmh SE 9.0 mph14.5 kmh 30.28 in1025.4 mb 0.00 in0.0 mm 0.00 in0.0 mm 0.00 in0.0 mm
03:38 PM 52.1°F11.2°C 25.7°F-3.5°C 36% 4.4 mph SE7.1 kmh SE 10.0 mph16.1 kmh 30.27 in1025.1 mb 0.00 in0.0 mm 0.00 in0.0 mm 0.00 in0.0 mm
03:43 PM 52.1°F11.2°C 25.7°F-3.5°C 36% 5.1 mph ESE8.2 kmh ESE 10.0 mph16.1 kmh 30.27 in1025.1 mb 0.00 in0.0 mm 0.00 in0.0 mm 0.00 in0.0 mm
03:48 PM 52.1°F11.2°C 26.4°F-3.1°C 37% 2.9 mph E4.7 kmh E 10.0 mph16.1 kmh 30.27 in1025.1 mb 0.00 in0.0 mm 0.00 in0.0 mm 0.00 in0.0 mm
03:53 PM 52.3°F11.3°C 26.6°F-3.0°C 37% 6.6 mph SE10.6 kmh SE 11.0 mph17.7 kmh 30.27 in1025.1 mb 0.00 in0.0 mm 0.00 in0.0 mm 0.00 in0.0 mm
03:58 PM 52.5°F11.4°C 26.1°F-3.3°C 36% 2.7 mph ESE4.3 kmh ESE 11.0 mph17.7 kmh 30.27 in1025.1 mb 0.00 in0.0 mm 0.00 in0.0 mm 0.00 in0.0 mm
04:03 PM 52.9°F11.6°C 25.8°F-3.4°C 35% 3.3 mph SE5.3 kmh SE 11.0 mph17.7 kmh 30.27 in1025.1 mb 0.00 in0.0 mm 0.00 in0.0 mm 0.00 in0.0 mm
04:08 PM 52.8°F11.6°C 25.7°F-3.5°C 35% 4.7 mph E7.6 kmh E 11.0 mph17.7 kmh 30.27 in1025.1 mb 0.00 in0.0 mm 0.00 in0.0 mm 0.00 in0.0 mm
04:13 PM 52.7°F11.5°C 25.6°F-3.6°C 35% 4.5 mph SE7.2 kmh SE 10.0 mph16.1 kmh 30.27 in1025.1 mb 0.00 in0.0 mm 0.00 in0.0 mm 0.00 in0.0 mm
04:18 PM 52.9°F11.6°C 25.8°F-3.4°C 35% 1.4 mph SE2.3 kmh SE 10.0 mph16.1 kmh 30.27 in1025.1 mb 0.00 in0.0 mm 0.00 in0.0 mm 0.00 in0.0 mm
04:23 PM 52.8°F11.6°C 25.2°F-3.8°C 34% 1.7 mph ESE2.7 kmh ESE 10.0 mph16.1 kmh 30.27 in1025.1 mb 0.00 in0.0 mm 0.00 in0.0 mm 0.00 in0.0 mm
04:28 PM 53.0°F11.7°C 25.1°F-3.8°C 34% 2.6 mph SSE4.2 kmh SSE 8.0 mph12.9 kmh 30.27 in1025.1 mb 0.00 in0.0 mm 0.00 in0.0 mm 0.00 in0.0 mm
04:33 PM 53.2°F11.8°C 25.3°F-3.7°C 34% 2.4 mph SE3.9 kmh SE 8.0 mph12.9 kmh 30.27 in1025.1 mb 0.00 in0.0 mm 0.00 in0.0 mm 0.00 in0.0 mm
04:38 PM 53.4°F11.9°C 27.1°F-2.7°C 36% 2.9 mph SE4.7 kmh SE 8.0 mph12.9 kmh 30.27 in1025.1 mb 0.00 in0.0 mm 0.00 in0.0 mm 0.00 in0.0 mm
04:43 PM 53.1°F11.7°C 25.4°F-3.7°C 34% 2.3 mph E3.7 kmh E 8.0 mph12.9 kmh 30.27 in1025.1 mb 0.00 in0.0 mm 0.00 in0.0 mm 0.00 in0.0 mm
04:48 PM 52.9°F11.6°C 26.0°F-3.3°C 35% 4.8 mph E7.7 kmh E 8.0 mph12.9 kmh 30.27 in1025.1 mb 0.00 in0.0 mm 0.00 in0.0 mm 0.00 in0.0 mm
04:53 PM 53.1°F11.7°C 26.6°F-3.0°C 36% 4.3 mph E6.9 kmh E 8.0 mph12.9 kmh 30.27 in1025.1 mb 0.00 in0.0 mm 0.00 in0.0 mm 0.00 in0.0 mm
04:58 PM 52.9°F11.6°C 25.8°F-3.4°C 35% 4.8 mph E7.7 kmh E 8.0 mph12.9 kmh 30.27 in1025.1 mb 0.00 in0.0 mm 0.00 in0.0 mm 0.00 in0.0 mm
05:03 PM 53.2°F11.8°C 26.0°F-3.3°C 35% 1.0 mph ESE1.6 kmh ESE 8.0 mph12.9 kmh 30.27 in1025.1 mb 0.00 in0.0 mm 0.00 in0.0 mm 0.00 in0.0 mm
05:08 PM 53.6°F12.0°C 26.4°F-3.1°C 35% 2.2 mph S3.5 kmh S 8.0 mph12.9 kmh 30.27 in1025.1 mb 0.00 in0.0 mm 0.00 in0.0 mm 0.00 in0.0 mm
05:13 PM 54.0°F12.2°C 27.6°F-2.4°C 36% 1.7 mph S2.7 kmh S 7.0 mph11.3 kmh 30.27 in1025.1 mb 0.00 in0.0 mm 0.00 in0.0 mm 0.00 in0.0 mm
05:18 PM 53.8°F12.1°C 26.5°F-3.1°C 35% 3.1 mph ESE5.0 kmh ESE 6.0 mph9.7 kmh 30.27 in1025.1 mb 0.00 in0.0 mm 0.00 in0.0 mm 0.00 in0.0 mm
05:23 PM 53.6°F12.0°C 26.6°F-3.0°C 35% 3.5 mph ESE5.6 kmh ESE 6.0 mph9.7 kmh 30.27 in1025.1 mb 0.00 in0.0 mm 0.00 in0.0 mm 0.00 in0.0 mm
05:28 PM 53.3°F11.8°C 26.1°F-3.3°C 35% 2.7 mph SE4.3 kmh SE 6.0 mph9.7 kmh 30.26 in1024.7 mb 0.00 in0.0 mm 0.00 in0.0 mm 0.00 in0.0 mm
05:33 PM 53.2°F11.8°C 26.0°F-3.3°C 35% 3.9 mph E6.3 kmh E 9.0 mph14.5 kmh 30.27 in1025.1 mb 0.00 in0.0 mm 0.00 in0.0 mm 0.00 in0.0 mm
05:38 PM 53.1°F11.7°C 26.6°F-3.0°C 36% 3.7 mph E6.0 kmh E 9.0 mph14.5 kmh 30.27 in1025.1 mb 0.00 in0.0 mm 0.00 in0.0 mm 0.00 in0.0 mm
05:43 PM 53.2°F11.8°C 26.7°F-2.9°C 36% 2.7 mph ESE4.3 kmh ESE 9.0 mph14.5 kmh 30.27 in1025.1 mb 0.00 in0.0 mm 0.00 in0.0 mm 0.00 in0.0 mm
05:48 PM 53.3°F11.8°C 26.1°F-3.3°C 35% 3.4 mph SE5.5 kmh SE 9.0 mph14.5 kmh 30.27 in1025.1 mb 0.00 in0.0 mm 0.00 in0.0 mm 0.00 in0.0 mm
05:53 PM 53.2°F11.8°C 26.7°F-2.9°C 36% 5.3 mph SE8.5 kmh SE 10.0 mph16.1 kmh 30.27 in1025.1 mb 0.00 in0.0 mm 0.00 in0.0 mm 0.00 in0.0 mm
05:58 PM 53.2°F11.8°C 26.9°F-2.8°C 36% 2.9 mph SE4.7 kmh SE 10.0 mph16.1 kmh 30.27 in1025.1 mb 0.00 in0.0 mm 0.00 in0.0 mm 0.00 in0.0 mm
06:02 PM 53.2°F11.8°C 26.7°F-2.9°C 36% 1.3 mph SE2.1 kmh SE 10.0 mph16.1 kmh 30.27 in1025.1 mb 0.00 in0.0 mm 0.00 in0.0 mm 0.00 in0.0 mm
06:07 PM 53.3°F11.8°C 26.1°F-3.3°C 35% 1.9 mph ESE3.1 kmh ESE 10.0 mph16.1 kmh 30.27 in1025.1 mb 0.00 in0.0 mm 0.00 in0.0 mm 0.00 in0.0 mm
06:12 PM 53.0°F11.7°C 26.5°F-3.1°C 36% 1.6 mph SE2.6 kmh SE 7.0 mph11.3 kmh 30.28 in1025.4 mb 0.00 in0.0 mm 0.00 in0.0 mm 0.00 in0.0 mm
06:17 PM 52.9°F11.6°C 25.8°F-3.4°C 35% 2.8 mph ESE4.5 kmh ESE 6.0 mph9.7 kmh 30.28 in1025.4 mb 0.00 in0.0 mm 0.00 in0.0 mm 0.00 in0.0 mm
06:22 PM 52.7°F11.5°C 26.3°F-3.2°C 36% 2.6 mph SE4.2 kmh SE 6.0 mph9.7 kmh 30.28 in1025.4 mb 0.00 in0.0 mm 0.00 in0.0 mm 0.00 in0.0 mm
06:27 PM 52.4°F11.3°C 26.7°F-2.9°C 37% 1.9 mph ESE3.1 kmh ESE 6.0 mph9.7 kmh 30.28 in1025.4 mb 0.00 in0.0 mm 0.00 in0.0 mm 0.00 in0.0 mm
06:32 PM 52.1°F11.2°C 27.2°F-2.7°C 38% Calm Calm 6.0 mph9.7 kmh 30.28 in1025.4 mb 0.00 in0.0 mm 0.00 in0.0 mm 0.00 in0.0 mm
06:37 PM 51.8°F11.0°C 27.0°F-2.8°C 38% Calm Calm 5.0 mph8.0 kmh 30.29 in1025.7 mb 0.00 in0.0 mm 0.00 in0.0 mm 0.00 in0.0 mm
06:42 PM 51.6°F10.9°C 27.2°F-2.7°C 39% 1.2 mph E1.9 kmh E 4.0 mph6.4 kmh 30.29 in1025.7 mb 0.00 in0.0 mm 0.00 in0.0 mm 0.00 in0.0 mm
06:47 PM 51.2°F10.7°C 27.5°F-2.5°C 40% 2.0 mph SE3.2 kmh SE 3.0 mph4.8 kmh 30.29 in1025.7 mb 0.00 in0.0 mm 0.00 in0.0 mm 0.00 in0.0 mm
06:52 PM 50.9°F10.5°C 27.9°F-2.3°C 41% 1.5 mph E2.4 kmh E 3.0 mph4.8 kmh 30.29 in1025.7 mb 0.00 in0.0 mm 0.00 in0.0 mm 0.00 in0.0 mm
06:57 PM 50.6°F10.3°C 27.6°F-2.4°C 41% 1.0 mph E1.6 kmh E 4.0 mph6.4 kmh 30.29 in1025.7 mb 0.00 in0.0 mm 0.00 in0.0 mm 0.00 in0.0 mm
07:02 PM 50.4°F10.2°C 27.4°F-2.6°C 41% 2.8 mph E4.5 kmh E 5.0 mph8.0 kmh 30.29 in1025.7 mb 0.00 in0.0 mm 0.00 in0.0 mm 0.00 in0.0 mm
07:07 PM 50.2°F10.1°C 27.8°F-2.3°C 42% 1.9 mph E3.1 kmh E 5.0 mph8.0 kmh 30.28 in1025.4 mb 0.00 in0.0 mm 0.00 in0.0 mm 0.00 in0.0 mm
07:12 PM 49.9°F9.9°C 27.6°F-2.4°C 42% 2.0 mph E3.2 kmh E 5.0 mph8.0 kmh 30.29 in1025.7 mb 0.00 in0.0 mm 0.00 in0.0 mm 0.00 in0.0 mm
07:17 PM 49.7°F9.8°C 28.0°F-2.2°C 43% 1.4 mph E2.3 kmh E 5.0 mph8.0 kmh 30.28 in1025.4 mb 0.00 in0.0 mm 0.00 in0.0 mm 0.00 in0.0 mm
07:22 PM 49.5°F9.7°C 27.8°F-2.3°C 43% 1.3 mph E2.1 kmh E 4.0 mph6.4 kmh 30.29 in1025.7 mb 0.00 in0.0 mm 0.00 in0.0 mm 0.00 in0.0 mm
07:27 PM 49.3°F9.6°C 27.7°F-2.4°C 43% 1.5 mph ESE2.4 kmh ESE 4.0 mph6.4 kmh 30.29 in1025.7 mb 0.00 in0.0 mm 0.00 in0.0 mm 0.00 in0.0 mm
07:32 PM 49.1°F9.5°C 27.4°F-2.6°C 43% 2.1 mph E3.4 kmh E 4.0 mph6.4 kmh 30.28 in1025.4 mb 0.00 in0.0 mm 0.00 in0.0 mm 0.00 in0.0 mm
07:37 PM 49.0°F9.4°C 28.0°F-2.2°C 44% 2.3 mph ESE3.7 kmh ESE 4.0 mph6.4 kmh 30.28 in1025.4 mb 0.00 in0.0 mm 0.00 in0.0 mm 0.00 in0.0 mm
07:42 PM 48.8°F9.3°C 27.8°F-2.3°C 44% 1.7 mph E2.7 kmh E 4.0 mph6.4 kmh 30.29 in1025.7 mb 0.00 in0.0 mm 0.00 in0.0 mm 0.00 in0.0 mm
07:47 PM 48.6°F9.2°C 27.5°F-2.5°C 44% 1.9 mph E3.1 kmh E 4.0 mph6.4 kmh 30.29 in1025.7 mb 0.00 in0.0 mm 0.00 in0.0 mm 0.00 in0.0 mm
07:52 PM 48.4°F9.1°C 27.9°F-2.3°C 45% 1.3 mph E2.1 kmh E 5.0 mph8.0 kmh 30.29 in1025.7 mb 0.00 in0.0 mm 0.00 in0.0 mm 0.00 in0.0 mm
07:57 PM 48.2°F9.0°C 27.7°F-2.4°C 45% 1.8 mph E2.9 kmh E 5.0 mph8.0 kmh 30.29 in1025.7 mb 0.00 in0.0 mm 0.00 in0.0 mm 0.00 in0.0 mm
08:02 PM 48.0°F8.9°C 28.2°F-2.1°C 46% 2.4 mph E3.9 kmh E 5.0 mph8.0 kmh 30.29 in1025.7 mb 0.00 in0.0 mm 0.00 in0.0 mm 0.00 in0.0 mm
08:07 PM 47.9°F8.8°C 28.0°F-2.2°C 46% 2.5 mph ESE4.0 kmh ESE 6.0 mph9.7 kmh 30.29 in1025.7 mb 0.00 in0.0 mm 0.00 in0.0 mm 0.00 in0.0 mm
08:12 PM 47.7°F8.7°C 28.4°F-2.0°C 47% 2.6 mph E4.2 kmh E 6.0 mph9.7 kmh 30.29 in1025.7 mb 0.00 in0.0 mm 0.00 in0.0 mm 0.00 in0.0 mm
08:17 PM 47.5°F8.6°C 28.2°F-2.1°C 47% 3.2 mph E5.1 kmh E 6.0 mph9.7 kmh 30.29 in1025.7 mb 0.00 in0.0 mm 0.00 in0.0 mm 0.00 in0.0 mm
08:22 PM 47.3°F8.5°C 28.1°F-2.2°C 47% 3.2 mph E5.1 kmh E 6.0 mph9.7 kmh 30.29 in1025.7 mb 0.00 in0.0 mm 0.00 in0.0 mm 0.00 in0.0 mm
08:27 PM 47.2°F8.4°C 28.4°F-2.0°C 48% 2.9 mph E4.7 kmh E 6.0 mph9.7 kmh 30.29 in1025.7 mb 0.00 in0.0 mm 0.00 in0.0 mm 0.00 in0.0 mm
08:32 PM 47.1°F8.4°C 28.3°F-2.1°C 48% 2.1 mph E3.4 kmh E 6.0 mph9.7 kmh 30.29 in1025.7 mb 0.00 in0.0 mm 0.00 in0.0 mm 0.00 in0.0 mm
08:37 PM 46.9°F8.3°C 28.2°F-2.1°C 48% 1.4 mph ESE2.3 kmh ESE 6.0 mph9.7 kmh 30.29 in1025.7 mb 0.00 in0.0 mm 0.00 in0.0 mm 0.00 in0.0 mm
08:42 PM 46.8°F8.2°C 28.1°F-2.2°C 48% 2.8 mph E4.5 kmh E 6.0 mph9.7 kmh 30.29 in1025.7 mb 0.00 in0.0 mm 0.00 in0.0 mm 0.00 in0.0 mm
08:47 PM 46.7°F8.2°C 28.5°F-1.9°C 49% 2.4 mph E3.9 kmh E 6.0 mph9.7 kmh 30.29 in1025.7 mb 0.00 in0.0 mm 0.00 in0.0 mm 0.00 in0.0 mm
08:52 PM 46.6°F8.1°C 28.4°F-2.0°C 49% 3.6 mph ESE5.8 kmh ESE 6.0 mph9.7 kmh 30.29 in1025.7 mb 0.00 in0.0 mm 0.00 in0.0 mm 0.00 in0.0 mm
08:57 PM 46.5°F8.1°C 28.3°F-2.1°C 49% 3.2 mph ESE5.1 kmh ESE 6.0 mph9.7 kmh 30.29 in1025.7 mb 0.00 in0.0 mm 0.00 in0.0 mm 0.00 in0.0 mm
09:02 PM 46.4°F8.0°C 28.2°F-2.1°C 49% 3.1 mph E5.0 kmh E 7.0 mph11.3 kmh 30.30 in1026.1 mb 0.00 in0.0 mm 0.00 in0.0 mm 0.00 in0.0 mm
09:07 PM 46.3°F7.9°C 28.1°F-2.2°C 49% 3.1 mph E5.0 kmh E 7.0 mph11.3 kmh 30.30 in1026.1 mb 0.00 in0.0 mm 0.00 in0.0 mm 0.00 in0.0 mm
09:12 PM 46.1°F7.8°C 28.4°F-2.0°C 50% 2.6 mph E4.2 kmh E 7.0 mph11.3 kmh 30.30 in1026.1 mb 0.00 in0.0 mm 0.00 in0.0 mm 0.00 in0.0 mm
09:17 PM 46.0°F7.8°C 28.4°F-2.0°C 50% 2.2 mph E3.5 kmh E 7.0 mph11.3 kmh 30.30 in1026.1 mb 0.00 in0.0 mm 0.00 in0.0 mm 0.00 in0.0 mm
09:23 PM 45.7°F7.6°C 28.1°F-2.2°C 50% 2.3 mph E3.7 kmh E 7.0 mph11.3 kmh 30.31 in1026.4 mb 0.00 in0.0 mm 0.00 in0.0 mm 0.00 in0.0 mm
09:28 PM 45.6°F7.6°C 28.5°F-1.9°C 51% 2.9 mph E4.7 kmh E 6.0 mph9.7 kmh 30.31 in1026.4 mb 0.00 in0.0 mm 0.00 in0.0 mm 0.00 in0.0 mm
09:33 PM 45.5°F7.5°C 28.4°F-2.0°C 51% 2.1 mph E3.4 kmh E 5.0 mph8.0 kmh 30.31 in1026.4 mb 0.00 in0.0 mm 0.00 in0.0 mm 0.00 in0.0 mm
09:38 PM 45.3°F7.4°C 28.7°F-1.8°C 52% 3.2 mph E5.1 kmh E 6.0 mph9.7 kmh 30.31 in1026.4 mb 0.00 in0.0 mm 0.00 in0.0 mm 0.00 in0.0 mm
09:43 PM 45.1°F7.3°C 28.5°F-1.9°C 52% 2.6 mph E4.2 kmh E 6.0 mph9.7 kmh 30.31 in1026.4 mb 0.00 in0.0 mm 0.00 in0.0 mm 0.00 in0.0 mm
09:48 PM 45.0°F7.2°C 28.4°F-2.0°C 52% 3.2 mph E5.1 kmh E 6.0 mph9.7 kmh 30.31 in1026.4 mb 0.00 in0.0 mm 0.00 in0.0 mm 0.00 in0.0 mm
09:53 PM 44.9°F7.2°C 28.3°F-2.1°C 52% 3.1 mph E5.0 kmh E 6.0 mph9.7 kmh 30.31 in1026.4 mb 0.00 in0.0 mm 0.00 in0.0 mm 0.00 in0.0 mm
09:58 PM 44.7°F7.1°C 28.6°F-1.9°C 53% 3.6 mph E5.8 kmh E 6.0 mph9.7 kmh 30.31 in1026.4 mb 0.00 in0.0 mm 0.00 in0.0 mm 0.00 in0.0 mm
10:03 PM 44.5°F6.9°C 28.4°F-2.0°C 53% 3.8 mph E6.1 kmh E 6.0 mph9.7 kmh 30.31 in1026.4 mb 0.00 in0.0 mm 0.00 in0.0 mm 0.00 in0.0 mm
10:08 PM 44.3°F6.8°C 28.2°F-2.1°C 53% 3.1 mph E5.0 kmh E 6.0 mph9.7 kmh 30.31 in1026.4 mb 0.00 in0.0 mm 0.00 in0.0 mm 0.00 in0.0 mm
10:13 PM 44.1°F6.7°C 28.5°F-1.9°C 54% 3.5 mph E5.6 kmh E 7.0 mph11.3 kmh 30.31 in1026.4 mb 0.00 in0.0 mm 0.00 in0.0 mm 0.00 in0.0 mm
10:18 PM 44.0°F6.7°C 28.4°F-2.0°C 54% 4.3 mph E6.9 kmh E 7.0 mph11.3 kmh 30.31 in1026.4 mb 0.00 in0.0 mm 0.00 in0.0 mm 0.00 in0.0 mm
10:23 PM 43.8°F6.6°C 28.7°F-1.8°C 55% 3.3 mph E5.3 kmh E 7.0 mph11.3 kmh 30.31 in1026.4 mb 0.00 in0.0 mm 0.00 in0.0 mm 0.00 in0.0 mm
10:28 PM 43.7°F6.5°C 28.6°F-1.9°C 55% 4.2 mph E6.8 kmh E 8.0 mph12.9 kmh 30.31 in1026.4 mb 0.00 in0.0 mm 0.00 in0.0 mm 0.00 in0.0 mm
10:33 PM 43.7°F6.5°C 28.6°F-1.9°C 55% 2.9 mph E4.7 kmh E 8.0 mph12.9 kmh 30.31 in1026.4 mb 0.00 in0.0 mm 0.00 in0.0 mm 0.00 in0.0 mm
10:38 PM 43.6°F6.4°C 28.5°F-1.9°C 55% 2.3 mph E3.7 kmh E 8.0 mph12.9 kmh 30.31 in1026.4 mb 0.00 in0.0 mm 0.00 in0.0 mm 0.00 in0.0 mm
10:43 PM 43.5°F6.4°C 28.9°F-1.7°C 56% 2.9 mph E4.7 kmh E 8.0 mph12.9 kmh 30.31 in1026.4 mb 0.00 in0.0 mm 0.00 in0.0 mm 0.00 in0.0 mm
10:48 PM 43.5°F6.4°C 28.4°F-2.0°C 55% 3.7 mph E6.0 kmh E 8.0 mph12.9 kmh 30.32 in1026.8 mb 0.00 in0.0 mm 0.00 in0.0 mm 0.00 in0.0 mm
10:53 PM 43.4°F6.3°C 28.8°F-1.8°C 56% 2.9 mph E4.7 kmh E 8.0 mph12.9 kmh 30.32 in1026.8 mb 0.00 in0.0 mm 0.00 in0.0 mm 0.00 in0.0 mm
10:58 PM 43.3°F6.3°C 28.6°F-1.9°C 56% 2.5 mph E4.0 kmh E 8.0 mph12.9 kmh 30.32 in1026.8 mb 0.00 in0.0 mm 0.00 in0.0 mm 0.00 in0.0 mm
11:02 PM 43.3°F6.3°C 28.2°F-2.1°C 55% 3.8 mph E6.1 kmh E 8.0 mph12.9 kmh 30.32 in1026.8 mb 0.00 in0.0 mm 0.00 in0.0 mm 0.00 in0.0 mm
11:07 PM 43.3°F6.3°C 28.2°F-2.1°C 55% 2.7 mph E4.3 kmh E 8.0 mph12.9 kmh 30.32 in1026.8 mb 0.00 in0.0 mm 0.00 in0.0 mm 0.00 in0.0 mm
11:12 PM 43.1°F6.2°C 28.0°F-2.2°C 55% 3.2 mph E5.1 kmh E 9.0 mph14.5 kmh 30.32 in1026.8 mb 0.00 in0.0 mm 0.00 in0.0 mm 0.00 in0.0 mm
11:17 PM 43.1°F6.2°C 28.5°F-1.9°C 56% 3.1 mph E5.0 kmh E 9.0 mph14.5 kmh 30.32 in1026.8 mb 0.00 in0.0 mm 0.00 in0.0 mm 0.00 in0.0 mm
11:22 PM 43.0°F6.1°C 28.0°F-2.2°C 55% 3.3 mph E5.3 kmh E 10.0 mph16.1 kmh 30.32 in1026.8 mb 0.00 in0.0 mm 0.00 in0.0 mm 0.00 in0.0 mm
11:27 PM 42.9°F6.1°C 27.9°F-2.3°C 55% 3.7 mph E6.0 kmh E 10.0 mph16.1 kmh 30.32 in1026.8 mb 0.00 in0.0 mm 0.00 in0.0 mm 0.00 in0.0 mm
11:32 PM 42.8°F6.0°C 27.8°F-2.3°C 55% 2.2 mph E3.5 kmh E 10.0 mph16.1 kmh 30.32 in1026.8 mb 0.00 in0.0 mm 0.00 in0.0 mm 0.00 in0.0 mm
11:37 PM 42.7°F5.9°C 27.7°F-2.4°C 55% 3.8 mph E6.1 kmh E 10.0 mph16.1 kmh 30.32 in1026.8 mb 0.00 in0.0 mm 0.00 in0.0 mm 0.00 in0.0 mm
11:42 PM 42.6°F5.9°C 27.6°F-2.4°C 55% 2.7 mph E4.3 kmh E 11.0 mph17.7 kmh 30.33 in1027.1 mb 0.00 in0.0 mm 0.00 in0.0 mm 0.00 in0.0 mm
11:47 PM 42.6°F5.9°C 27.6°F-2.4°C 55% 2.7 mph E4.3 kmh E 11.0 mph17.7 kmh 30.33 in1027.1 mb 0.00 in0.0 mm 0.00 in0.0 mm 0.00 in0.0 mm
11:52 PM 42.4°F5.8°C 27.4°F-2.6°C 55% 3.3 mph E5.3 kmh E 11.0 mph17.7 kmh 30.33 in1027.1 mb 0.00 in0.0 mm 0.00 in0.0 mm 0.00 in0.0 mm
11:57 PM 42.3°F5.7°C 27.3°F-2.6°C 55% 4.3 mph ENE6.9 kmh ENE 11.0 mph17.7 kmh 30.33 in1027.1 mb 0.00 in0.0 mm 0.00 in0.0 mm 0.00 in0.0 mm